sensor_id;sensor_type;location;lat;lon;timestamp;P1;durP1;ratioP1;P2;durP2;ratioP2
26710;SDS011;18311;52.754;18.118;2023-02-15T00:00:44;33.40;;;25.40;;
26710;SDS011;18311;52.754;18.118;2023-02-15T00:05:52;29.60;;;23.22;;
26710;SDS011;18311;52.754;18.118;2023-02-15T00:08:25;29.10;;;22.22;;
26710;SDS011;18311;52.754;18.118;2023-02-15T00:13:40;28.87;;;22.22;;
26710;SDS011;18311;52.754;18.118;2023-02-15T00:16:12;27.93;;;21.37;;
26710;SDS011;18311;52.754;18.118;2023-02-15T00:18:43;28.52;;;21.50;;
26710;SDS011;18311;52.754;18.118;2023-02-15T00:21:16;28.70;;;22.05;;
26710;SDS011;18311;52.754;18.118;2023-02-15T00:23:50;30.00;;;22.58;;
26710;SDS011;18311;52.754;18.118;2023-02-15T00:26:24;30.88;;;24.00;;
26710;SDS011;18311;52.754;18.118;2023-02-15T00:28:58;29.25;;;23.00;;
26710;SDS011;18311;52.754;18.118;2023-02-15T00:31:31;31.52;;;23.30;;
26710;SDS011;18311;52.754;18.118;2023-02-15T00:34:05;30.20;;;24.37;;
26710;SDS011;18311;52.754;18.118;2023-02-15T00:36:44;31.82;;;25.02;;
26710;SDS011;18311;52.754;18.118;2023-02-15T00:39:17;31.33;;;24.52;;
26710;SDS011;18311;52.754;18.118;2023-02-15T00:41:50;33.33;;;25.43;;
26710;SDS011;18311;52.754;18.118;2023-02-15T00:44:23;33.38;;;25.00;;
26710;SDS011;18311;52.754;18.118;2023-02-15T00:46:57;34.18;;;26.33;;
26710;SDS011;18311;52.754;18.118;2023-02-15T00:49:32;32.60;;;25.85;;
26710;SDS011;18311;52.754;18.118;2023-02-15T00:52:09;32.38;;;26.07;;
26710;SDS011;18311;52.754;18.118;2023-02-15T00:54:43;33.70;;;27.22;;
26710;SDS011;18311;52.754;18.118;2023-02-15T00:57:17;35.48;;;28.32;;
26710;SDS011;18311;52.754;18.118;2023-02-15T00:59:49;37.63;;;28.35;;
26710;SDS011;18311;52.754;18.118;2023-02-15T01:02:22;37.90;;;28.65;;
26710;SDS011;18311;52.754;18.118;2023-02-15T01:04:56;38.90;;;29.30;;
26710;SDS011;18311;52.754;18.118;2023-02-15T01:07:28;37.65;;;28.98;;
26710;SDS011;18311;52.754;18.118;2023-02-15T01:10:05;37.95;;;29.87;;
26710;SDS011;18311;52.754;18.118;2023-02-15T01:12:37;37.65;;;29.65;;
26710;SDS011;18311;52.754;18.118;2023-02-15T01:15:09;37.90;;;29.52;;
26710;SDS011;18311;52.754;18.118;2023-02-15T01:17:42;41.90;;;31.10;;
26710;SDS011;18311;52.754;18.118;2023-02-15T01:20:20;38.33;;;30.85;;
26710;SDS011;18311;52.754;18.118;2023-02-15T01:22:54;37.05;;;28.85;;
26710;SDS011;18311;52.754;18.118;2023-02-15T01:25:27;38.40;;;30.40;;
26710;SDS011;18311;52.754;18.118;2023-02-15T01:27:59;37.17;;;29.82;;
26710;SDS011;18311;52.754;18.118;2023-02-15T01:30:33;37.58;;;30.80;;
26710;SDS011;18311;52.754;18.118;2023-02-15T01:33:06;36.05;;;29.85;;
26710;SDS011;18311;52.754;18.118;2023-02-15T01:35:39;38.45;;;31.65;;
26710;SDS011;18311;52.754;18.118;2023-02-15T01:38:33;38.83;;;30.95;;
26710;SDS011;18311;52.754;18.118;2023-02-15T01:41:06;38.40;;;30.60;;
26710;SDS011;18311;52.754;18.118;2023-02-15T01:43:56;36.73;;;30.55;;
26710;SDS011;18311;52.754;18.118;2023-02-15T01:49:14;34.15;;;28.15;;
26710;SDS011;18311;52.754;18.118;2023-02-15T01:51:48;34.55;;;29.75;;
26710;SDS011;18311;52.754;18.118;2023-02-15T01:54:27;36.48;;;29.72;;
26710;SDS011;18311;52.754;18.118;2023-02-15T01:57:02;36.80;;;30.60;;
26710;SDS011;18311;52.754;18.118;2023-02-15T01:59:37;36.90;;;30.80;;
26710;SDS011;18311;52.754;18.118;2023-02-15T02:02:11;36.17;;;30.55;;
26710;SDS011;18311;52.754;18.118;2023-02-15T02:04:49;35.88;;;29.60;;
26710;SDS011;18311;52.754;18.118;2023-02-15T02:07:26;34.60;;;28.95;;
26710;SDS011;18311;52.754;18.118;2023-02-15T02:10:02;38.85;;;30.65;;
26710;SDS011;18311;52.754;18.118;2023-02-15T02:12:36;35.77;;;30.30;;
26710;SDS011;18311;52.754;18.118;2023-02-15T02:15:11;37.30;;;30.72;;
26710;SDS011;18311;52.754;18.118;2023-02-15T02:17:51;37.83;;;29.80;;
26710;SDS011;18311;52.754;18.118;2023-02-15T02:29:22;34.45;;;29.02;;
26710;SDS011;18311;52.754;18.118;2023-02-15T02:38:03;36.70;;;30.00;;
26710;SDS011;18311;52.754;18.118;2023-02-15T02:43:35;38.58;;;31.02;;
26710;SDS011;18311;52.754;18.118;2023-02-15T02:46:11;40.12;;;32.38;;
26710;SDS011;18311;52.754;18.118;2023-02-15T02:48:47;41.00;;;33.10;;
26710;SDS011;18311;52.754;18.118;2023-02-15T02:51:20;45.15;;;34.78;;
26710;SDS011;18311;52.754;18.118;2023-02-15T02:53:56;42.15;;;34.90;;
26710;SDS011;18311;52.754;18.118;2023-02-15T02:56:36;42.25;;;32.42;;
26710;SDS011;18311;52.754;18.118;2023-02-15T02:59:13;40.17;;;32.90;;
26710;SDS011;18311;52.754;18.118;2023-02-15T03:01:57;37.23;;;30.82;;
26710;SDS011;18311;52.754;18.118;2023-02-15T03:04:31;37.25;;;30.77;;
26710;SDS011;18311;52.754;18.118;2023-02-15T03:07:07;34.20;;;29.85;;
26710;SDS011;18311;52.754;18.118;2023-02-15T03:09:45;34.63;;;29.55;;
26710;SDS011;18311;52.754;18.118;2023-02-15T03:12:19;33.85;;;30.12;;
26710;SDS011;18311;52.754;18.118;2023-02-15T03:14:53;34.30;;;29.25;;
26710;SDS011;18311;52.754;18.118;2023-02-15T03:17:31;34.53;;;28.73;;
26710;SDS011;18311;52.754;18.118;2023-02-15T03:20:14;35.30;;;30.68;;
26710;SDS011;18311;52.754;18.118;2023-02-15T03:22:50;34.55;;;29.67;;
26710;SDS011;18311;52.754;18.118;2023-02-15T03:25:44;34.83;;;30.05;;
26710;SDS011;18311;52.754;18.118;2023-02-15T03:28:16;36.45;;;30.17;;
26710;SDS011;18311;52.754;18.118;2023-02-15T03:30:49;35.05;;;30.77;;
26710;SDS011;18311;52.754;18.118;2023-02-15T03:33:22;33.92;;;30.25;;
26710;SDS011;18311;52.754;18.118;2023-02-15T03:38:49;39.13;;;32.38;;
26710;SDS011;18311;52.754;18.118;2023-02-15T03:41:32;30.65;;;27.40;;
26710;SDS011;18311;52.754;18.118;2023-02-15T03:44:07;36.38;;;31.45;;
26710;SDS011;18311;52.754;18.118;2023-02-15T03:46:53;37.23;;;32.90;;
26710;SDS011;18311;52.754;18.118;2023-02-15T03:49:27;37.80;;;32.15;;
26710;SDS011;18311;52.754;18.118;2023-02-15T03:51:58;40.00;;;33.73;;
26710;SDS011;18311;52.754;18.118;2023-02-15T03:54:31;38.02;;;33.13;;
26710;SDS011;18311;52.754;18.118;2023-02-15T03:57:17;38.83;;;32.73;;
26710;SDS011;18311;52.754;18.118;2023-02-15T04:00:15;38.00;;;33.38;;
26710;SDS011;18311;52.754;18.118;2023-02-15T04:03:20;40.12;;;34.67;;
26710;SDS011;18311;52.754;18.118;2023-02-15T04:05:53;40.05;;;33.63;;
26710;SDS011;18311;52.754;18.118;2023-02-15T04:08:24;37.53;;;33.40;;
26710;SDS011;18311;52.754;18.118;2023-02-15T04:10:56;36.73;;;32.33;;
26710;SDS011;18311;52.754;18.118;2023-02-15T04:13:31;35.40;;;31.12;;
26710;SDS011;18311;52.754;18.118;2023-02-15T04:16:04;36.20;;;31.57;;
26710;SDS011;18311;52.754;18.118;2023-02-15T04:18:37;37.48;;;33.00;;
26710;SDS011;18311;52.754;18.118;2023-02-15T04:21:28;39.75;;;33.95;;
26710;SDS011;18311;52.754;18.118;2023-02-15T04:24:17;40.55;;;34.20;;
26710;SDS011;18311;52.754;18.118;2023-02-15T04:27:06;41.35;;;36.68;;
26710;SDS011;18311;52.754;18.118;2023-02-15T04:29:37;41.92;;;36.60;;
26710;SDS011;18311;52.754;18.118;2023-02-15T04:32:07;42.55;;;36.85;;
26710;SDS011;18311;52.754;18.118;2023-02-15T04:34:38;42.23;;;36.30;;
26710;SDS011;18311;52.754;18.118;2023-02-15T04:37:09;43.98;;;37.53;;
26710;SDS011;18311;52.754;18.118;2023-02-15T04:39:39;41.65;;;36.28;;
26710;SDS011;18311;52.754;18.118;2023-02-15T04:42:10;42.15;;;36.00;;
26710;SDS011;18311;52.754;18.118;2023-02-15T04:44:41;41.70;;;36.20;;
26710;SDS011;18311;52.754;18.118;2023-02-15T04:47:12;42.62;;;35.17;;
26710;SDS011;18311;52.754;18.118;2023-02-15T04:49:42;40.17;;;35.78;;
26710;SDS011;18311;52.754;18.118;2023-02-15T04:52:13;39.88;;;35.38;;
26710;SDS011;18311;52.754;18.118;2023-02-15T04:54:46;40.30;;;35.43;;
26710;SDS011;18311;52.754;18.118;2023-02-15T04:57:16;41.20;;;36.13;;
26710;SDS011;18311;52.754;18.118;2023-02-15T04:59:47;38.53;;;34.25;;
26710;SDS011;18311;52.754;18.118;2023-02-15T05:02:17;38.98;;;32.23;;
26710;SDS011;18311;52.754;18.118;2023-02-15T05:04:49;36.33;;;32.42;;
26710;SDS011;18311;52.754;18.118;2023-02-15T05:07:19;38.98;;;33.70;;
26710;SDS011;18311;52.754;18.118;2023-02-15T05:09:50;41.08;;;35.48;;
26710;SDS011;18311;52.754;18.118;2023-02-15T05:12:21;40.73;;;36.38;;
26710;SDS011;18311;52.754;18.118;2023-02-15T05:14:52;49.00;;;39.38;;
26710;SDS011;18311;52.754;18.118;2023-02-15T05:17:24;46.53;;;38.05;;
26710;SDS011;18311;52.754;18.118;2023-02-15T05:19:54;49.38;;;37.90;;
26710;SDS011;18311;52.754;18.118;2023-02-15T05:22:25;43.98;;;38.10;;
26710;SDS011;18311;52.754;18.118;2023-02-15T05:24:55;48.73;;;38.15;;
26710;SDS011;18311;52.754;18.118;2023-02-15T05:27:44;52.20;;;41.40;;
26710;SDS011;18311;52.754;18.118;2023-02-15T05:30:33;50.90;;;41.75;;
26710;SDS011;18311;52.754;18.118;2023-02-15T05:33:06;54.93;;;44.10;;
26710;SDS011;18311;52.754;18.118;2023-02-15T05:35:37;66.82;;;49.88;;
26710;SDS011;18311;52.754;18.118;2023-02-15T05:38:08;58.75;;;45.55;;
26710;SDS011;18311;52.754;18.118;2023-02-15T05:40:38;84.40;;;62.90;;
26710;SDS011;18311;52.754;18.118;2023-02-15T05:43:09;110.22;;;82.75;;
26710;SDS011;18311;52.754;18.118;2023-02-15T05:45:40;125.92;;;91.95;;
26710;SDS011;18311;52.754;18.118;2023-02-15T05:48:12;113.83;;;86.45;;
26710;SDS011;18311;52.754;18.118;2023-02-15T05:50:42;117.75;;;87.57;;
26710;SDS011;18311;52.754;18.118;2023-02-15T05:53:14;98.30;;;73.37;;
26710;SDS011;18311;52.754;18.118;2023-02-15T05:55:44;80.00;;;60.48;;
26710;SDS011;18311;52.754;18.118;2023-02-15T05:58:15;73.55;;;55.30;;
26710;SDS011;18311;52.754;18.118;2023-02-15T06:00:45;75.85;;;58.17;;
26710;SDS011;18311;52.754;18.118;2023-02-15T06:03:16;113.47;;;86.50;;
26710;SDS011;18311;52.754;18.118;2023-02-15T06:05:47;115.47;;;84.40;;
26710;SDS011;18311;52.754;18.118;2023-02-15T06:08:18;84.85;;;65.83;;
26710;SDS011;18311;52.754;18.118;2023-02-15T06:10:50;62.35;;;48.68;;
26710;SDS011;18311;52.754;18.118;2023-02-15T06:13:20;50.17;;;43.10;;
26710;SDS011;18311;52.754;18.118;2023-02-15T06:15:52;47.50;;;41.00;;
26710;SDS011;18311;52.754;18.118;2023-02-15T06:18:23;60.65;;;50.88;;
26710;SDS011;18311;52.754;18.118;2023-02-15T06:20:55;53.15;;;44.48;;
26710;SDS011;18311;52.754;18.118;2023-02-15T06:23:25;51.18;;;45.17;;
26710;SDS011;18311;52.754;18.118;2023-02-15T06:25:56;45.78;;;40.55;;
26710;SDS011;18311;52.754;18.118;2023-02-15T06:28:27;43.68;;;38.98;;
26710;SDS011;18311;52.754;18.118;2023-02-15T06:30:58;46.45;;;41.53;;
26710;SDS011;18311;52.754;18.118;2023-02-15T06:33:29;48.15;;;43.02;;
26710;SDS011;18311;52.754;18.118;2023-02-15T06:36:01;46.75;;;41.80;;
26710;SDS011;18311;52.754;18.118;2023-02-15T06:38:32;55.63;;;45.15;;
26710;SDS011;18311;52.754;18.118;2023-02-15T06:41:03;63.73;;;47.53;;
26710;SDS011;18311;52.754;18.118;2023-02-15T06:43:33;53.20;;;43.02;;
26710;SDS011;18311;52.754;18.118;2023-02-15T06:46:05;39.13;;;34.73;;
26710;SDS011;18311;52.754;18.118;2023-02-15T06:48:36;35.45;;;31.62;;
26710;SDS011;18311;52.754;18.118;2023-02-15T06:51:06;32.38;;;28.98;;
26710;SDS011;18311;52.754;18.118;2023-02-15T06:53:37;29.65;;;26.57;;
26710;SDS011;18311;52.754;18.118;2023-02-15T06:56:10;28.75;;;25.85;;
26710;SDS011;18311;52.754;18.118;2023-02-15T06:58:41;37.80;;;32.23;;
26710;SDS011;18311;52.754;18.118;2023-02-15T07:01:14;34.33;;;29.92;;
26710;SDS011;18311;52.754;18.118;2023-02-15T07:03:45;31.37;;;28.05;;
26710;SDS011;18311;52.754;18.118;2023-02-15T07:06:16;28.70;;;25.72;;
26710;SDS011;18311;52.754;18.118;2023-02-15T07:08:47;28.67;;;25.70;;
26710;SDS011;18311;52.754;18.118;2023-02-15T07:11:17;29.32;;;26.25;;
26710;SDS011;18311;52.754;18.118;2023-02-15T07:14:06;33.60;;;30.10;;
26710;SDS011;18311;52.754;18.118;2023-02-15T07:16:37;28.12;;;25.30;;
26710;SDS011;18311;52.754;18.118;2023-02-15T07:19:08;26.50;;;23.65;;
26710;SDS011;18311;52.754;18.118;2023-02-15T07:21:39;27.15;;;24.35;;
26710;SDS011;18311;52.754;18.118;2023-02-15T07:24:09;27.48;;;24.60;;
26710;SDS011;18311;52.754;18.118;2023-02-15T07:26:46;26.02;;;23.27;;
26710;SDS011;18311;52.754;18.118;2023-02-15T07:29:16;26.05;;;23.27;;
26710;SDS011;18311;52.754;18.118;2023-02-15T07:31:47;26.37;;;23.60;;
26710;SDS011;18311;52.754;18.118;2023-02-15T07:34:18;25.32;;;22.73;;
26710;SDS011;18311;52.754;18.118;2023-02-15T07:36:50;25.60;;;23.10;;
26710;SDS011;18311;52.754;18.118;2023-02-15T07:39:22;24.63;;;22.02;;
26710;SDS011;18311;52.754;18.118;2023-02-15T07:41:53;26.57;;;23.85;;
26710;SDS011;18311;52.754;18.118;2023-02-15T07:44:24;29.82;;;25.43;;
26710;SDS011;18311;52.754;18.118;2023-02-15T07:46:56;29.12;;;24.70;;
26710;SDS011;18311;52.754;18.118;2023-02-15T07:49:28;26.17;;;23.12;;
26710;SDS011;18311;52.754;18.118;2023-02-15T07:52:01;26.97;;;23.30;;
26710;SDS011;18311;52.754;18.118;2023-02-15T07:54:32;24.90;;;22.07;;
26710;SDS011;18311;52.754;18.118;2023-02-15T07:57:02;26.52;;;23.73;;
26710;SDS011;18311;52.754;18.118;2023-02-15T07:59:33;24.65;;;22.07;;
26710;SDS011;18311;52.754;18.118;2023-02-15T08:02:10;25.17;;;22.50;;
26710;SDS011;18311;52.754;18.118;2023-02-15T08:04:39;25.65;;;23.05;;
26710;SDS011;18311;52.754;18.118;2023-02-15T08:07:11;27.48;;;24.47;;
26710;SDS011;18311;52.754;18.118;2023-02-15T08:09:42;28.57;;;25.57;;
26710;SDS011;18311;52.754;18.118;2023-02-15T08:12:12;29.10;;;25.95;;
26710;SDS011;18311;52.754;18.118;2023-02-15T08:14:44;30.52;;;26.27;;
26710;SDS011;18311;52.754;18.118;2023-02-15T08:17:15;28.87;;;25.82;;
26710;SDS011;18311;52.754;18.118;2023-02-15T08:19:45;29.52;;;26.33;;
26710;SDS011;18311;52.754;18.118;2023-02-15T08:22:16;29.10;;;26.07;;
26710;SDS011;18311;52.754;18.118;2023-02-15T08:24:46;31.02;;;27.60;;
26710;SDS011;18311;52.754;18.118;2023-02-15T08:27:18;31.97;;;28.40;;
26710;SDS011;18311;52.754;18.118;2023-02-15T08:29:51;35.85;;;31.95;;
26710;SDS011;18311;52.754;18.118;2023-02-15T08:32:23;37.00;;;33.08;;
26710;SDS011;18311;52.754;18.118;2023-02-15T08:34:54;36.88;;;32.17;;
26710;SDS011;18311;52.754;18.118;2023-02-15T08:37:25;36.80;;;32.85;;
26710;SDS011;18311;52.754;18.118;2023-02-15T08:39:56;37.23;;;32.90;;
26710;SDS011;18311;52.754;18.118;2023-02-15T08:42:26;36.88;;;32.95;;
26710;SDS011;18311;52.754;18.118;2023-02-15T08:44:57;38.02;;;33.92;;
26710;SDS011;18311;52.754;18.118;2023-02-15T08:47:28;36.55;;;32.70;;
26710;SDS011;18311;52.754;18.118;2023-02-15T08:49:58;34.23;;;30.62;;
26710;SDS011;18311;52.754;18.118;2023-02-15T08:52:32;33.65;;;30.25;;
26710;SDS011;18311;52.754;18.118;2023-02-15T08:55:08;34.73;;;31.07;;
26710;SDS011;18311;52.754;18.118;2023-02-15T08:57:39;34.03;;;30.62;;
26710;SDS011;18311;52.754;18.118;2023-02-15T09:00:12;33.63;;;30.12;;
26710;SDS011;18311;52.754;18.118;2023-02-15T09:02:43;32.58;;;29.27;;
26710;SDS011;18311;52.754;18.118;2023-02-15T09:05:14;31.23;;;27.87;;
26710;SDS011;18311;52.754;18.118;2023-02-15T09:07:45;31.27;;;28.10;;
26710;SDS011;18311;52.754;18.118;2023-02-15T09:10:17;31.52;;;28.35;;
26710;SDS011;18311;52.754;18.118;2023-02-15T09:12:52;32.05;;;28.65;;
26710;SDS011;18311;52.754;18.118;2023-02-15T09:15:24;29.15;;;26.25;;
26710;SDS011;18311;52.754;18.118;2023-02-15T09:17:57;30.90;;;27.60;;
26710;SDS011;18311;52.754;18.118;2023-02-15T09:20:35;32.58;;;29.02;;
26710;SDS011;18311;52.754;18.118;2023-02-15T09:25:39;34.95;;;31.55;;
26710;SDS011;18311;52.754;18.118;2023-02-15T09:28:13;34.45;;;30.70;;
26710;SDS011;18311;52.754;18.118;2023-02-15T09:30:49;33.78;;;30.27;;
26710;SDS011;18311;52.754;18.118;2023-02-15T09:33:22;35.00;;;31.52;;
26710;SDS011;18311;52.754;18.118;2023-02-15T09:36:12;36.48;;;32.58;;
26710;SDS011;18311;52.754;18.118;2023-02-15T09:38:46;36.75;;;32.95;;
26710;SDS011;18311;52.754;18.118;2023-02-15T09:44:23;36.75;;;32.88;;
26710;SDS011;18311;52.754;18.118;2023-02-15T09:52:38;35.50;;;31.75;;
26710;SDS011;18311;52.754;18.118;2023-02-15T09:55:34;37.05;;;33.10;;
26710;SDS011;18311;52.754;18.118;2023-02-15T10:01:20;37.20;;;33.48;;
26710;SDS011;18311;52.754;18.118;2023-02-15T10:07:19;36.00;;;32.38;;
26710;SDS011;18311;52.754;18.118;2023-02-15T10:10:03;35.65;;;32.13;;
26710;SDS011;18311;52.754;18.118;2023-02-15T10:12:48;38.50;;;34.50;;
26710;SDS011;18311;52.754;18.118;2023-02-15T10:18:10;38.85;;;34.85;;
26710;SDS011;18311;52.754;18.118;2023-02-15T10:20:49;40.08;;;35.92;;
26710;SDS011;18311;52.754;18.118;2023-02-15T10:26:31;43.30;;;38.65;;
26710;SDS011;18311;52.754;18.118;2023-02-15T10:29:36;42.73;;;38.23;;
26710;SDS011;18311;52.754;18.118;2023-02-15T10:32:22;44.35;;;39.73;;
26710;SDS011;18311;52.754;18.118;2023-02-15T10:35:10;44.77;;;40.08;;
26710;SDS011;18311;52.754;18.118;2023-02-15T10:37:49;42.65;;;37.95;;
26710;SDS011;18311;52.754;18.118;2023-02-15T10:43:07;37.38;;;31.23;;
26710;SDS011;18311;52.754;18.118;2023-02-15T10:45:55;44.23;;;39.40;;
26710;SDS011;18311;52.754;18.118;2023-02-15T10:51:29;44.25;;;39.55;;
26710;SDS011;18311;52.754;18.118;2023-02-15T10:56:47;49.03;;;44.13;;
26710;SDS011;18311;52.754;18.118;2023-02-15T10:59:32;44.00;;;39.25;;
26710;SDS011;18311;52.754;18.118;2023-02-15T11:07:56;44.93;;;40.20;;
26710;SDS011;18311;52.754;18.118;2023-02-15T11:10:34;44.90;;;40.23;;
26710;SDS011;18311;52.754;18.118;2023-02-15T11:13:18;45.52;;;40.63;;
26710;SDS011;18311;52.754;18.118;2023-02-15T11:15:59;44.10;;;39.60;;
26710;SDS011;18311;52.754;18.118;2023-02-15T11:18:34;45.12;;;40.38;;
26710;SDS011;18311;52.754;18.118;2023-02-15T11:21:34;49.55;;;44.25;;
26710;SDS011;18311;52.754;18.118;2023-02-15T11:24:13;44.00;;;39.23;;
26710;SDS011;18311;52.754;18.118;2023-02-15T11:26:54;42.30;;;37.93;;
26710;SDS011;18311;52.754;18.118;2023-02-15T11:29:41;43.63;;;38.95;;
26710;SDS011;18311;52.754;18.118;2023-02-15T11:32:30;43.35;;;38.83;;
26710;SDS011;18311;52.754;18.118;2023-02-15T11:37:44;41.98;;;37.55;;
26710;SDS011;18311;52.754;18.118;2023-02-15T11:43:43;44.13;;;39.53;;
26710;SDS011;18311;52.754;18.118;2023-02-15T11:46:32;44.40;;;39.95;;
26710;SDS011;18311;52.754;18.118;2023-02-15T11:52:06;49.08;;;42.03;;
26710;SDS011;18311;52.754;18.118;2023-02-15T11:54:44;44.08;;;39.38;;
26710;SDS011;18311;52.754;18.118;2023-02-15T11:57:28;41.85;;;37.42;;
26710;SDS011;18311;52.754;18.118;2023-02-15T12:00:03;44.93;;;40.05;;
26710;SDS011;18311;52.754;18.118;2023-02-15T12:02:46;45.63;;;40.67;;
26710;SDS011;18311;52.754;18.118;2023-02-15T12:05:23;42.98;;;38.30;;
26710;SDS011;18311;52.754;18.118;2023-02-15T12:08:03;42.45;;;37.13;;
26710;SDS011;18311;52.754;18.118;2023-02-15T12:10:39;42.13;;;37.48;;
26710;SDS011;18311;52.754;18.118;2023-02-15T12:13:15;42.90;;;37.53;;
26710;SDS011;18311;52.754;18.118;2023-02-15T12:15:53;39.55;;;35.33;;
26710;SDS011;18311;52.754;18.118;2023-02-15T12:18:35;42.25;;;37.65;;
26710;SDS011;18311;52.754;18.118;2023-02-15T12:21:30;42.03;;;35.08;;
26710;SDS011;18311;52.754;18.118;2023-02-15T12:24:31;45.98;;;40.30;;
26710;SDS011;18311;52.754;18.118;2023-02-15T12:27:23;47.13;;;40.08;;
26710;SDS011;18311;52.754;18.118;2023-02-15T12:29:57;57.62;;;44.65;;
26710;SDS011;18311;52.754;18.118;2023-02-15T12:32:53;46.02;;;38.63;;
26710;SDS011;18311;52.754;18.118;2023-02-15T12:35:34;42.50;;;37.88;;
26710;SDS011;18311;52.754;18.118;2023-02-15T12:40:56;44.55;;;38.08;;
26710;SDS011;18311;52.754;18.118;2023-02-15T12:43:36;43.45;;;38.70;;
26710;SDS011;18311;52.754;18.118;2023-02-15T12:49:06;44.03;;;37.83;;
26710;SDS011;18311;52.754;18.118;2023-02-15T12:51:52;42.67;;;38.13;;
26710;SDS011;18311;52.754;18.118;2023-02-15T12:54:32;42.25;;;36.20;;
26710;SDS011;18311;52.754;18.118;2023-02-15T12:57:14;42.80;;;38.20;;
26710;SDS011;18311;52.754;18.118;2023-02-15T13:00:02;43.40;;;38.70;;
26710;SDS011;18311;52.754;18.118;2023-02-15T13:02:43;44.40;;;38.23;;
26710;SDS011;18311;52.754;18.118;2023-02-15T13:10:57;41.20;;;35.30;;
26710;SDS011;18311;52.754;18.118;2023-02-15T13:13:56;43.42;;;35.90;;
26710;SDS011;18311;52.754;18.118;2023-02-15T13:16:36;42.15;;;36.28;;
26710;SDS011;18311;52.754;18.118;2023-02-15T13:19:15;41.88;;;36.30;;
26710;SDS011;18311;52.754;18.118;2023-02-15T13:21:50;44.27;;;38.78;;
26710;SDS011;18311;52.754;18.118;2023-02-15T13:24:33;41.65;;;37.15;;
26710;SDS011;18311;52.754;18.118;2023-02-15T13:27:12;45.05;;;38.20;;
26710;SDS011;18311;52.754;18.118;2023-02-15T13:29:49;43.38;;;38.00;;
26710;SDS011;18311;52.754;18.118;2023-02-15T13:32:33;42.55;;;37.05;;
26710;SDS011;18311;52.754;18.118;2023-02-15T13:35:09;42.88;;;37.60;;
26710;SDS011;18311;52.754;18.118;2023-02-15T13:40:58;42.40;;;37.78;;
26710;SDS011;18311;52.754;18.118;2023-02-15T13:46:47;45.58;;;39.05;;
26710;SDS011;18311;52.754;18.118;2023-02-15T13:54:58;44.13;;;36.93;;
26710;SDS011;18311;52.754;18.118;2023-02-15T14:00:54;43.10;;;38.08;;
26710;SDS011;18311;52.754;18.118;2023-02-15T14:03:59;41.60;;;36.25;;
26710;SDS011;18311;52.754;18.118;2023-02-15T14:18:15;45.88;;;37.17;;
26710;SDS011;18311;52.754;18.118;2023-02-15T14:21:13;48.40;;;41.15;;
26710;SDS011;18311;52.754;18.118;2023-02-15T14:29:45;42.00;;;36.15;;
26710;SDS011;18311;52.754;18.118;2023-02-15T14:32:33;44.80;;;38.28;;
26710;SDS011;18311;52.754;18.118;2023-02-15T14:35:12;41.95;;;36.25;;
26710;SDS011;18311;52.754;18.118;2023-02-15T14:38:00;43.10;;;37.00;;
26710;SDS011;18311;52.754;18.118;2023-02-15T14:43:36;42.98;;;36.55;;
26710;SDS011;18311;52.754;18.118;2023-02-15T14:49:13;45.63;;;37.63;;
26710;SDS011;18311;52.754;18.118;2023-02-15T14:52:04;44.93;;;38.00;;
26710;SDS011;18311;52.754;18.118;2023-02-15T14:59:56;50.43;;;40.85;;
26710;SDS011;18311;52.754;18.118;2023-02-15T15:02:46;50.38;;;41.35;;
26710;SDS011;18311;52.754;18.118;2023-02-15T15:05:32;49.85;;;39.20;;
26710;SDS011;18311;52.754;18.118;2023-02-15T15:08:17;51.48;;;41.92;;
26710;SDS011;18311;52.754;18.118;2023-02-15T15:10:44;51.40;;;41.83;;
26710;SDS011;18311;52.754;18.118;2023-02-15T15:16:25;54.48;;;44.23;;
26710;SDS011;18311;52.754;18.118;2023-02-15T15:18:57;51.73;;;43.95;;
26710;SDS011;18311;52.754;18.118;2023-02-15T15:35:33;64.45;;;48.48;;
26710;SDS011;18311;52.754;18.118;2023-02-15T15:41:48;64.82;;;49.55;;
26710;SDS011;18311;52.754;18.118;2023-02-15T15:46:41;69.70;;;53.45;;
26710;SDS011;18311;52.754;18.118;2023-02-15T15:51:48;70.87;;;55.35;;
26710;SDS011;18311;52.754;18.118;2023-02-15T15:54:21;67.60;;;55.15;;
26710;SDS011;18311;52.754;18.118;2023-02-15T15:57:01;68.65;;;53.92;;
26710;SDS011;18311;52.754;18.118;2023-02-15T15:59:32;66.35;;;55.40;;
26710;SDS011;18311;52.754;18.118;2023-02-15T16:02:05;62.35;;;51.75;;
26710;SDS011;18311;52.754;18.118;2023-02-15T16:04:36;66.70;;;53.05;;
26710;SDS011;18311;52.754;18.118;2023-02-15T16:07:41;63.68;;;52.17;;
26710;SDS011;18311;52.754;18.118;2023-02-15T16:12:36;62.00;;;50.78;;
26710;SDS011;18311;52.754;18.118;2023-02-15T16:15:16;65.22;;;52.67;;
26710;SDS011;18311;52.754;18.118;2023-02-15T16:17:49;68.83;;;51.48;;
26710;SDS011;18311;52.754;18.118;2023-02-15T16:20:29;88.67;;;61.18;;
26710;SDS011;18311;52.754;18.118;2023-02-15T16:23:07;85.80;;;62.38;;
26710;SDS011;18311;52.754;18.118;2023-02-15T16:25:59;77.10;;;59.25;;
26710;SDS011;18311;52.754;18.118;2023-02-15T16:28:26;69.65;;;55.23;;
26710;SDS011;18311;52.754;18.118;2023-02-15T16:31:06;65.20;;;52.73;;
26710;SDS011;18311;52.754;18.118;2023-02-15T16:33:44;64.47;;;52.73;;
26710;SDS011;18311;52.754;18.118;2023-02-15T16:36:21;61.75;;;51.20;;
26710;SDS011;18311;52.754;18.118;2023-02-15T16:41:30;64.55;;;51.53;;
26710;SDS011;18311;52.754;18.118;2023-02-15T16:44:06;65.78;;;52.78;;
26710;SDS011;18311;52.754;18.118;2023-02-15T16:46:37;62.70;;;52.93;;
26710;SDS011;18311;52.754;18.118;2023-02-15T16:49:45;64.85;;;51.42;;
26710;SDS011;18311;52.754;18.118;2023-02-15T16:51:56;58.50;;;50.88;;
26710;SDS011;18311;52.754;18.118;2023-02-15T16:54:37;64.45;;;51.75;;
26710;SDS011;18311;52.754;18.118;2023-02-15T16:57:18;63.95;;;52.00;;
26710;SDS011;18311;52.754;18.118;2023-02-15T16:59:53;61.08;;;50.88;;
26710;SDS011;18311;52.754;18.118;2023-02-15T17:02:28;65.52;;;53.55;;
26710;SDS011;18311;52.754;18.118;2023-02-15T17:07:51;80.85;;;62.58;;
26710;SDS011;18311;52.754;18.118;2023-02-15T17:10:41;79.82;;;59.08;;
26710;SDS011;18311;52.754;18.118;2023-02-15T17:13:11;75.07;;;57.10;;
26710;SDS011;18311;52.754;18.118;2023-02-15T17:18:39;76.10;;;58.52;;
26710;SDS011;18311;52.754;18.118;2023-02-15T17:21:12;77.42;;;58.10;;
26710;SDS011;18311;52.754;18.118;2023-02-15T17:23:49;74.47;;;58.50;;
26710;SDS011;18311;52.754;18.118;2023-02-15T17:26:23;73.72;;;57.85;;
26710;SDS011;18311;52.754;18.118;2023-02-15T17:28:56;71.05;;;55.75;;
26710;SDS011;18311;52.754;18.118;2023-02-15T17:31:30;75.95;;;57.10;;
26710;SDS011;18311;52.754;18.118;2023-02-15T17:34:02;68.20;;;53.95;;
26710;SDS011;18311;52.754;18.118;2023-02-15T17:36:33;70.00;;;55.10;;
26710;SDS011;18311;52.754;18.118;2023-02-15T17:39:05;67.97;;;54.18;;
26710;SDS011;18311;52.754;18.118;2023-02-15T17:44:10;72.82;;;58.70;;
26710;SDS011;18311;52.754;18.118;2023-02-15T17:46:43;65.47;;;53.60;;
26710;SDS011;18311;52.754;18.118;2023-02-15T17:49:22;66.15;;;54.75;;